Time;durP1;ratioP1;P1;durP2;ratioP2;P2;SDS_P1;SDS_P2;PMS_P1;PMS_P2;Temp;Humidity;BMP_temperature;BMP_pressure;BME280_temperature;BME280_humidity;BME280_pressure;Samples;Min_cycle;Max_cycle;Signal;HPM_P1;HPM_P2
2022/10/20 00:00:25;;;;;;;;;19.00;13.67;;;;;18.27;75.03;100430.97;5087276;27;45527;-58
2022/10/20 00:02:50;;;;;;;;;18.33;17.67;;;;;18.25;75.48;100432.88;5096344;27;46038;-58
2022/10/20 00:05:15;;;;;;;;;14.00;14.00;;;;;18.23;75.11;100426.78;5098243;27;50296;-62
2022/10/20 00:07:41;;;;;;;;;17.00;15.67;;;;;18.24;75.48;100430.28;5086237;27;45360;-61
2022/10/20 00:10:06;;;;;;;;;15.33;13.00;;;;;18.22;75.45;100435.75;5096493;27;45601;-59
2022/10/20 00:12:32;;;;;;;;;15.00;15.00;;;;;18.20;75.11;100431.50;5098552;27;46091;-63
2022/10/20 00:14:57;;;;;;;;;17.67;17.67;;;;;18.20;75.19;100437.66;5091763;27;45509;-63
2022/10/20 00:17:23;;;;;;;;;19.67;17.33;;;;;18.19;75.49;100432.44;5091306;27;45664;-60
2022/10/20 00:19:49;;;;;;;;;17.00;16.33;;;;;18.19;75.21;100427.97;5092479;27;45430;-59
2022/10/20 00:22:14;;;;;;;;;14.33;13.00;;;;;18.22;75.57;100429.56;5097079;27;46152;-58
2022/10/20 00:24:40;;;;;;;;;16.00;15.00;;;;;18.24;75.29;100422.31;5098036;27;45436;-60
2022/10/20 00:27:06;;;;;;;;;14.00;14.00;;;;;18.23;75.29;100421.47;5096778;27;45480;-61
2022/10/20 00:29:31;;;;;;;;;17.67;16.00;;;;;18.24;75.54;100409.00;5098237;27;45479;-63
2022/10/20 00:31:57;;;;;;;;;14.00;14.00;;;;;18.22;75.36;100405.63;5095534;27;46027;-61
2022/10/20 00:34:22;;;;;;;;;13.33;13.33;;;;;18.22;74.96;100408.28;5098008;27;45395;-60
2022/10/20 00:36:47;;;;;;;;;18.67;18.67;;;;;18.22;75.00;100406.47;5096911;27;45449;-57
2022/10/20 00:39:13;;;;;;;;;17.00;17.00;;;;;18.23;75.36;100409.97;5097934;27;45425;-61
2022/10/20 00:41:39;;;;;;;;;15.33;14.33;;;;;18.18;75.08;100415.63;5094448;27;46173;-60
2022/10/20 00:44:41;;;;;;;;;20.00;15.33;;;;;18.16;75.21;100412.22;5097029;27;45450;-59
2022/10/20 00:47:12;;;;;;;;;16.00;16.00;;;;;18.15;75.64;100404.34;5096889;27;45439;-61
2022/10/20 00:49:37;;;;;;;;;14.33;13.67;;;;;18.13;75.68;100404.44;5096485;27;45560;-60
2022/10/20 00:52:04;;;;;;;;;14.67;14.67;;;;;18.12;75.36;100399.22;5096703;27;45486;-58
2022/10/20 00:54:30;;;;;;;;;17.00;17.00;;;;;18.14;75.16;100392.84;5097433;27;45382;-61
2022/10/20 00:56:57;;;;;;;;;21.00;18.67;;;;;18.16;75.28;100398.03;5097568;27;45465;-59
2022/10/20 00:59:27;;;;;;;;;17.67;17.33;;;;;18.15;75.54;100399.00;5097700;27;45452;-60
2022/10/20 01:01:53;;;;;;;;;15.67;15.67;;;;;18.13;75.54;100391.13;5092978;27;46217;-59
2022/10/20 01:04:18;;;;;;;;;15.67;13.67;;;;;18.10;75.53;100386.03;5097406;27;45368;-61
2022/10/20 01:06:44;;;;;;;;;16.67;16.67;;;;;18.08;75.88;100383.47;5085800;27;45437;-61
2022/10/20 01:09:10;;;;;;;;;14.33;14.33;;;;;18.09;75.64;100389.66;5087465;27;45509;-59
2022/10/20 01:11:57;;;;;;;;;13.67;13.33;;;;;18.07;75.30;100386.25;5096061;27;45436;-62
2022/10/20 01:14:53;;;;;;;;;15.00;14.33;;;;;18.08;75.26;100401.22;5097290;27;45449;-59
2022/10/20 01:17:40;;;;;;;;;17.67;17.67;;;;;18.03;75.72;100398.06;5097703;27;45369;-63
2022/10/20 01:20:51;;;;;;;;;19.00;16.67;;;;;18.00;75.89;100403.59;5096774;27;45452;-59
2022/10/20 01:23:26;;;;;;;;;14.67;14.33;;;;;17.98;75.77;100403.72;5072577;27;45370;-59
2022/10/20 01:26:07;;;;;;;;;18.00;16.33;;;;;17.96;75.82;100397.63;5097199;27;45424;-62
2022/10/20 01:28:48;;;;;;;;;15.33;13.33;;;;;17.93;76.07;100410.31;5097351;27;45444;-63
2022/10/20 01:31:25;;;;;;;;;19.33;15.67;;;;;17.90;76.19;100416.69;5089878;27;45311;-59
2022/10/20 01:34:03;;;;;;;;;15.33;15.33;;;;;17.87;76.48;100411.59;5094114;27;45504;-62
2022/10/20 01:36:38;;;;;;;;;15.67;15.33;;;;;17.87;76.28;100411.59;5096875;27;45495;-59
2022/10/20 01:39:09;;;;;;;;;15.67;15.67;;;;;17.82;76.75;100411.03;5096877;27;45508;-61
2022/10/20 01:41:42;;;;;;;;;16.00;16.00;;;;;17.78;76.16;100414.81;5095657;27;45505;-59
2022/10/20 01:44:11;;;;;;;;;13.67;13.67;;;;;17.77;76.70;100437.91;5096707;27;46600;-62
2022/10/20 01:46:39;;;;;;;;;17.00;14.33;;;;;17.76;76.38;100468.16;5096852;27;45440;-62
2022/10/20 01:49:06;;;;;;;;;16.67;16.00;;;;;17.77;76.30;100451.22;5094315;27;45439;-62
2022/10/20 01:51:32;;;;;;;;;17.00;15.67;;;;;17.76;76.87;100446.88;5084430;27;45363;-59
2022/10/20 01:53:58;;;;;;;;;19.00;18.67;;;;;17.78;76.62;100466.22;5094372;27;46025;-59
2022/10/20 01:56:40;;;;;;;;;17.33;17.00;;;;;17.79;76.91;100467.13;5091195;27;45676;-61
2022/10/20 01:59:44;;;;;;;;;14.67;14.67;;;;;17.80;76.62;100459.03;5096853;27;45377;-59
2022/10/20 02:03:01;;;;;;;;;15.00;15.00;;;;;17.81;77.15;100433.25;5096370;27;45630;-62
2022/10/20 02:05:35;;;;;;;;;15.00;14.00;;;;;17.81;76.46;100409.31;5071995;27;45522;-59
2022/10/20 02:08:29;;;;;;;;;16.67;14.33;;;;;17.78;76.52;100410.34;5081802;27;45440;-62
2022/10/20 02:10:59;;;;;;;;;12.67;11.33;;;;;17.78;77.34;100389.06;5095221;27;45559;-62
2022/10/20 02:13:27;;;;;;;;;14.00;13.67;;;;;17.80;76.62;100389.84;5096622;27;45369;-59
2022/10/20 02:15:55;;;;;;;;;15.00;15.00;;;;;17.81;76.80;100380.06;5096504;27;45525;-60
2022/10/20 02:18:26;;;;;;;;;14.67;14.67;;;;;17.83;76.54;100352.41;5096349;27;45501;-60
2022/10/20 02:20:55;;;;;;;;;14.00;13.00;;;;;17.83;77.12;100325.78;5095542;27;45500;-59
2022/10/20 02:23:21;;;;;;;;;12.33;12.33;;;;;17.88;76.97;100325.47;5096623;27;45417;-59
2022/10/20 02:25:50;;;;;;;;;12.67;10.00;;;;;17.90;77.48;100338.69;5099837;27;45615;-61
2022/10/20 02:28:16;;;;;;;;;13.33;11.67;;;;;17.95;77.63;100336.56;5099972;27;45373;-59
2022/10/20 02:30:43;;;;;;;;;10.67;8.67;;;;;17.97;77.32;100308.00;5098922;27;45496;-61
2022/10/20 02:33:09;;;;;;;;;9.00;8.33;;;;;18.06;76.97;100329.50;5098694;27;45557;-60
2022/10/20 02:35:34;;;;;;;;;11.67;9.33;;;;;18.13;76.56;100284.66;5099803;27;45449;-61
2022/10/20 02:38:00;;;;;;;;;9.67;9.33;;;;;18.19;76.67;100272.72;5099904;27;45459;-61
2022/10/20 02:40:26;;;;;;;;;9.00;7.00;;;;;18.24;75.87;100260.81;5099065;27;45453;-60
2022/10/20 02:42:51;;;;;;;;;7.00;6.00;;;;;18.27;75.54;100260.56;5099818;27;45394;-59
2022/10/20 02:45:17;;;;;;;;;7.25;7.25;;;;;18.31;75.41;100271.84;5090527;27;46049;-60
2022/10/20 02:47:42;;;;;;;;;8.67;8.33;;;;;18.36;74.69;100276.84;5099594;27;45477;-59
2022/10/20 02:50:08;;;;;;;;;6.25;6.25;;;;;18.40;74.58;100275.63;5097195;27;45447;-59
2022/10/20 02:52:34;;;;;;;;;8.00;8.00;;;;;18.44;73.92;100277.13;5080589;27;45516;-58
2022/10/20 02:54:59;;;;;;;;;5.50;5.25;;;;;18.46;73.40;100288.53;5099741;27;46088;-62
2022/10/20 02:57:25;;;;;;;;;5.67;5.67;;;;;18.51;73.31;100291.66;5099573;27;45370;-58
2022/10/20 02:59:51;;;;;;;;;6.00;6.00;;;;;18.55;73.42;100304.66;5097907;27;45490;-58
2022/10/20 03:02:16;;;;;;;;;11.00;9.00;;;;;18.56;72.46;100305.50;5088085;27;45575;-58
2022/10/20 03:04:41;;;;;;;;;6.50;6.50;;;;;18.57;72.86;100309.03;5096099;27;51959;-62
2022/10/20 03:07:06;;;;;;;;;8.25;8.25;;;;;18.60;73.13;100314.13;5099459;27;49368;-59
2022/10/20 03:09:32;;;;;;;;;9.00;6.00;;;;;18.62;73.16;100307.75;5095069;27;45687;-59
2022/10/20 03:11:57;;;;;;;;;5.67;5.67;;;;;18.61;73.48;100310.50;5099103;27;53438;-61
2022/10/20 03:14:23;;;;;;;;;7.00;6.75;;;;;18.61;73.62;100315.81;5099083;27;57286;-61
2022/10/20 03:16:48;;;;;;;;;6.00;6.00;;;;;18.63;73.66;100303.25;5099204;27;45463;-61
2022/10/20 03:19:13;;;;;;;;;7.50;7.50;;;;;18.63;73.21;100301.44;5088426;27;46128;-59
2022/10/20 03:21:39;;;;;;;;;8.67;7.67;;;;;18.64;73.40;100289.81;5095867;27;45400;-60
2022/10/20 03:24:04;;;;;;;;;6.00;5.50;;;;;18.65;73.69;100285.34;5099046;27;45632;-61
2022/10/20 03:26:30;;;;;;;;;7.00;7.00;;;;;18.66;72.73;100295.88;5099033;27;45496;-60
2022/10/20 03:28:55;;;;;;;;;4.75;4.75;;;;;18.68;73.28;100317.94;5085120;27;45377;-60
2022/10/20 03:31:20;;;;;;;;;5.75;5.75;;;;;18.67;72.72;100318.03;5098581;27;52886;-58
2022/10/20 03:33:46;;;;;;;;;7.50;5.50;;;;;18.68;72.47;100323.25;5098944;27;46104;-60
2022/10/20 03:36:11;;;;;;;;;6.33;6.33;;;;;18.68;73.12;100323.25;5097158;27;45479;-61
2022/10/20 03:38:36;;;;;;;;;5.00;5.00;;;;;18.69;73.09;100318.78;5098806;27;45415;-61
2022/10/20 03:41:02;;;;;;;;;4.50;4.50;;;;;18.71;73.65;100319.53;5098579;27;45407;-60
2022/10/20 03:43:27;;;;;;;;;6.00;5.50;;;;;18.70;73.53;100326.66;5098875;27;45394;-59
2022/10/20 03:46:04;;;;;;;;;6.00;6.00;;;;;18.66;73.69;100335.84;5098886;27;45379;-59
2022/10/20 03:48:30;;;;;;;;;10.00;5.75;;;;;18.65;74.00;100354.59;5098985;27;45442;-59
2022/10/20 03:50:55;;;;;;;;;5.75;5.75;;;;;18.64;74.68;100355.56;5097600;27;45412;-61
2022/10/20 03:53:20;;;;;;;;;8.75;8.75;;;;;18.62;75.13;100350.34;5088327;27;45981;-58
2022/10/20 03:55:46;;;;;;;;;5.25;5.25;;;;;18.61;75.45;100345.13;5094608;27;45402;-61
2022/10/20 03:58:11;;;;;;;;;6.75;6.00;;;;;18.60;75.60;100354.09;5098344;27;49043;-62
2022/10/20 04:00:36;;;;;;;;;7.75;7.00;;;;;18.60;75.66;100368.25;5096976;27;45385;-60
2022/10/20 04:03:01;;;;;;;;;7.25;6.25;;;;;18.59;75.75;100377.22;5097772;27;63820;-62
2022/10/20 04:05:27;;;;;;;;;7.75;7.75;;;;;18.57;75.57;100354.31;5097776;27;45731;-59
2022/10/20 04:07:52;;;;;;;;;7.33;6.00;;;;;18.57;76.46;100346.31;5098480;27;45448;-62
2022/10/20 04:10:17;;;;;;;;;9.00;6.33;;;;;18.57;76.28;100333.00;5097323;27;45432;-58
2022/10/20 04:12:43;;;;;;;;;8.25;5.00;;;;;18.55;76.59;100317.97;5098197;27;45450;-59
2022/10/20 04:15:09;;;;;;;;;7.00;7.00;;;;;18.52;76.80;100317.34;5095780;27;45441;-59
2022/10/20 04:17:38;;;;;;;;;8.33;7.33;;;;;18.49;77.18;100314.94;5098509;27;45496;-56
2022/10/20 04:20:05;;;;;;;;;7.00;7.00;;;;;18.47;77.07;100325.69;5098920;27;45502;-59
2022/10/20 04:22:30;;;;;;;;;10.00;7.00;;;;;18.46;77.12;100318.66;5098054;27;45413;-61
2022/10/20 04:24:56;;;;;;;;;7.50;7.50;;;;;18.46;77.48;100317.81;5097823;27;45525;-59
2022/10/20 04:27:21;;;;;;;;;10.00;9.00;;;;;18.48;76.96;100297.22;5098234;27;45384;-61
2022/10/20 04:29:46;;;;;;;;;10.33;10.33;;;;;18.44;77.48;100306.41;5096135;27;45427;-60
2022/10/20 04:32:12;;;;;;;;;10.67;8.33;;;;;18.40;77.78;100307.59;5088213;27;47316;-58
2022/10/20 04:34:37;;;;;;;;;7.00;7.00;;;;;18.39;77.71;100319.22;5091703;27;45486;-59
2022/10/20 04:37:03;;;;;;;;;7.00;7.00;;;;;18.41;77.46;100336.78;5097848;27;45749;-60
2022/10/20 04:39:28;;;;;;;;;11.25;8.00;;;;;18.40;77.49;100340.38;5098025;27;45437;-61
2022/10/20 04:41:53;;;;;;;;;10.50;7.75;;;;;18.41;77.47;100330.59;5096315;27;46161;-60
2022/10/20 04:44:19;;;;;;;;;10.75;8.75;;;;;18.40;77.90;100318.25;5097883;27;45386;-60
2022/10/20 04:46:44;;;;;;;;;9.75;8.50;;;;;18.39;77.73;100320.06;5096012;27;45610;-58
2022/10/20 04:49:09;;;;;;;;;10.00;10.00;;;;;18.40;77.74;100327.06;5097725;27;53051;-58
2022/10/20 04:51:35;;;;;;;;;7.00;7.00;;;;;18.40;78.15;100329.72;5097225;27;49596;-61
2022/10/20 04:54:00;;;;;;;;;11.00;9.33;;;;;18.40;78.10;100320.91;5083339;27;45705;-61
2022/10/20 04:56:26;;;;;;;;;10.00;8.33;;;;;18.39;77.91;100311.22;5094859;27;45583;-61
2022/10/20 04:58:57;;;;;;;;;9.00;9.00;;;;;18.37;77.68;100302.50;5089163;27;45434;-59
2022/10/20 05:01:25;;;;;;;;;10.00;10.00;;;;;18.35;77.92;100315.06;5077399;27;45497;-58
2022/10/20 05:03:50;;;;;;;;;9.25;7.75;;;;;18.35;77.80;100318.59;5089849;27;45547;-59
2022/10/20 05:06:20;;;;;;;;;8.67;8.67;;;;;18.35;77.95;100325.69;5097090;27;45439;-58
2022/10/20 05:08:47;;;;;;;;;8.33;6.00;;;;;18.34;78.34;100335.50;5097539;27;45432;-61
2022/10/20 05:11:14;;;;;;;;;8.00;8.00;;;;;18.33;78.27;100349.78;5096880;27;46000;-60
2022/10/20 05:13:39;;;;;;;;;9.00;7.00;;;;;18.32;78.60;100350.72;5097052;27;45448;-61
2022/10/20 05:16:05;;;;;;;;;11.00;9.67;;;;;18.30;78.52;100353.53;5091117;27;45402;-60
2022/10/20 05:18:32;;;;;;;;;8.25;8.25;;;;;18.32;78.66;100348.06;5097379;27;45541;-57
2022/10/20 05:20:57;;;;;;;;;13.00;10.00;;;;;18.30;78.58;100331.38;5097700;27;45404;-61
2022/10/20 05:23:23;;;;;;;;;11.67;10.33;;;;;18.29;78.94;100345.63;5096866;27;45361;-59
2022/10/20 05:25:48;;;;;;;;;10.33;10.33;;;;;18.26;79.11;100362.69;5094928;27;45424;-58
2022/10/20 05:28:13;;;;;;;;;8.33;8.33;;;;;18.24;78.48;100359.31;5094592;27;45591;-60
2022/10/20 05:30:39;;;;;;;;;7.33;7.00;;;;;18.24;78.23;100367.28;5087714;27;46384;-60
2022/10/20 05:33:04;;;;;;;;;9.33;9.33;;;;;18.24;78.39;100358.41;5084037;27;53035;-61
2022/10/20 05:35:30;;;;;;;;;8.00;7.67;;;;;18.26;78.33;100365.34;5096979;27;45428;-59
2022/10/20 05:37:56;;;;;;;;;12.33;6.67;;;;;18.24;78.46;100380.59;5090055;27;45377;-58
2022/10/20 05:40:21;;;;;;;;;8.33;8.33;;;;;18.24;77.90;100366.41;5096461;27;45385;-59
2022/10/20 05:42:47;;;;;;;;;10.33;6.00;;;;;18.22;77.54;100357.69;5096639;27;45359;-59
2022/10/20 05:45:12;;;;;;;;;6.00;6.00;;;;;18.19;77.52;100356.09;5087147;27;45681;-58
2022/10/20 05:47:38;;;;;;;;;10.33;8.67;;;;;18.19;76.56;100348.13;5096328;27;45468;-60
2022/10/20 05:50:04;;;;;;;;;6.00;6.00;;;;;18.17;76.59;100346.53;5091525;27;45508;-58
2022/10/20 05:52:29;;;;;;;;;7.00;7.00;;;;;18.15;76.83;100338.63;5093125;27;45502;-57
2022/10/20 05:54:54;;;;;;;;;4.67;4.67;;;;;18.14;76.49;100339.63;5085565;27;45493;-59
2022/10/20 05:57:20;;;;;;;;;5.00;5.00;;;;;18.17;77.13;100342.06;5089668;27;45471;-59
2022/10/20 05:59:45;;;;;;;;;6.00;6.00;;;;;18.14;76.69;100328.97;5086661;27;45434;-58
2022/10/20 06:02:11;;;;;;;;;6.25;6.25;;;;;18.16;77.02;100320.84;5097392;27;45502;-58
2022/10/20 06:04:36;;;;;;;;;6.67;6.00;;;;;18.12;76.94;100316.72;5096890;27;45459;-60
2022/10/20 06:07:04;;;;;;;;;7.67;5.67;;;;;18.09;77.27;100299.16;5092703;27;45400;-59
2022/10/20 06:09:30;;;;;;;;;5.67;5.67;;;;;18.07;77.11;100280.63;5079371;27;46079;-59
2022/10/20 06:11:55;;;;;;;;;6.33;5.00;;;;;18.06;76.91;100256.81;5085048;27;45428;-61
2022/10/20 06:14:21;;;;;;;;;8.33;6.67;;;;;18.01;77.11;100243.81;5082229;27;45422;-59
2022/10/20 06:16:50;;;;;;;;;6.25;4.25;;;;;17.96;77.09;100237.97;5096437;27;45354;-61
2022/10/20 06:19:15;;;;;;;;;5.75;5.00;;;;;17.95;77.15;100227.47;5091303;27;46079;-59
2022/10/20 06:21:41;;;;;;;;;5.25;5.25;;;;;17.92;76.85;100232.97;5085853;27;45448;-59
2022/10/20 06:24:06;;;;;;;;;7.00;7.00;;;;;17.86;77.37;100218.31;5091352;27;45426;-59
2022/10/20 06:26:35;;;;;;;;;9.33;7.67;;;;;17.82;77.28;100206.22;5092970;27;45508;-60
2022/10/20 06:29:02;;;;;;;;;8.00;8.00;;;;;17.79;77.46;100207.28;5095221;27;45408;-59
2022/10/20 06:31:31;;;;;;;;;8.67;6.67;;;;;17.77;77.55;100214.47;5095478;27;45467;-61
2022/10/20 06:33:57;;;;;;;;;7.00;7.00;;;;;17.77;77.33;100209.16;5095829;27;45468;-61
2022/10/20 06:36:23;;;;;;;;;9.00;9.00;;;;;17.78;77.75;100210.00;5095421;27;45463;-60
2022/10/20 06:38:57;;;;;;;;;7.00;5.67;;;;;17.78;77.91;100210.00;5095470;27;46405;-59
2022/10/20 06:41:24;;;;;;;;;6.75;6.00;;;;;17.75;77.88;100195.09;5095335;27;45440;-58
2022/10/20 06:43:53;;;;;;;;;7.00;7.00;;;;;17.75;78.12;100205.75;5095492;27;45512;-59
2022/10/20 06:46:19;;;;;;;;;9.33;6.00;;;;;17.73;77.88;100212.13;5095311;27;45409;-55
2022/10/20 06:48:44;;;;;;;;;8.67;7.67;;;;;17.74;78.05;100229.81;5095134;27;45392;-57
2022/10/20 06:51:13;;;;;;;;;6.00;6.00;;;;;17.71;78.19;100241.50;5094643;27;45422;-58
2022/10/20 06:53:39;;;;;;;;;6.75;5.00;;;;;17.72;77.80;100258.31;5081927;27;45348;-57
2022/10/20 06:56:07;;;;;;;;;5.75;4.75;;;;;17.69;77.73;100248.75;5094003;27;45412;-60
2022/10/20 06:58:34;;;;;;;;;6.33;6.33;;;;;17.72;77.71;100271.63;5095153;27;45408;-60
2022/10/20 07:01:02;;;;;;;;;6.75;6.50;;;;;17.73;77.45;100286.59;5095093;27;45501;-57
2022/10/20 07:03:29;;;;;;;;;6.33;4.00;;;;;17.74;77.36;100291.00;5095283;27;45459;-58
2022/10/20 07:05:55;;;;;;;;;7.00;4.33;;;;;17.78;77.27;100301.28;5094891;27;45579;-59
2022/10/20 07:08:21;;;;;;;;;9.67;6.67;;;;;17.77;77.08;100310.22;5094836;27;46121;-57
2022/10/20 07:10:47;;;;;;;;;10.67;7.33;;;;;17.80;77.12;100314.53;5098283;27;45336;-59
2022/10/20 07:13:12;;;;;;;;;7.00;5.33;;;;;17.79;77.08;100318.16;5098673;27;45643;-59
2022/10/20 07:15:38;;;;;;;;;13.33;10.33;;;;;17.78;76.72;100322.56;5098306;27;45450;-59
2022/10/20 07:18:03;;;;;;;;;15.33;13.00;;;;;17.78;76.94;100327.03;5098240;27;45432;-57
2022/10/20 07:20:28;;;;;;;;;8.33;8.33;;;;;17.78;76.90;100335.03;5097309;27;45475;-59
2022/10/20 07:22:54;;;;;;;;;13.00;11.00;;;;;17.78;77.12;100327.88;5098265;27;45440;-58
2022/10/20 07:25:21;;;;;;;;;6.00;6.00;;;;;17.76;77.15;100324.50;5098171;27;45685;-59
2022/10/20 07:27:46;;;;;;;;;10.67;9.67;;;;;17.76;76.92;100329.81;5098024;27;46078;-58
2022/10/20 07:30:12;;;;;;;;;7.67;7.67;;;;;17.74;77.30;100339.72;5097693;27;45416;-57
2022/10/20 07:32:38;;;;;;;;;7.67;6.33;;;;;17.75;76.67;100340.56;5098301;27;45321;-58
2022/10/20 07:35:03;;;;;;;;;7.33;6.67;;;;;17.75;77.06;100332.56;5096782;27;45768;-56
2022/10/20 07:37:29;;;;;;;;;8.25;7.25;;;;;17.75;77.49;100341.41;5097899;27;45440;-59
2022/10/20 07:39:54;;;;;;;;;9.67;7.00;;;;;17.75;76.96;100341.41;5097455;27;52690;-60
2022/10/20 07:42:19;;;;;;;;;6.67;5.67;;;;;17.79;77.03;100337.63;5098481;27;45448;-60
2022/10/20 07:44:45;;;;;;;;;8.33;8.33;;;;;17.81;77.07;100346.34;5098306;27;45401;-60
2022/10/20 07:47:10;;;;;;;;;7.00;6.67;;;;;17.81;77.35;100332.19;5097333;27;59221;-58
2022/10/20 07:49:35;;;;;;;;;7.67;7.67;;;;;17.82;77.59;100332.09;5097998;27;45425;-58
2022/10/20 07:52:01;;;;;;;;;9.33;9.33;;;;;17.84;77.21;100338.16;5097779;27;46531;-59
2022/10/20 07:54:26;;;;;;;;;10.00;10.00;;;;;17.85;77.17;100331.88;5083573;27;46166;-59
2022/10/20 07:56:51;;;;;;;;;9.00;9.00;;;;;17.86;77.32;100341.53;5097837;27;45500;-57
2022/10/20 07:59:17;;;;;;;;;10.67;8.33;;;;;17.88;77.11;100346.75;5097813;27;45466;-59
2022/10/20 08:01:42;;;;;;;;;6.00;6.00;;;;;17.86;77.08;100330.03;5098037;27;45447;-58
2022/10/20 08:04:08;;;;;;;;;7.67;7.67;;;;;17.85;77.62;100336.34;5097472;27;45414;-57
2022/10/20 08:06:34;;;;;;;;;11.67;8.67;;;;;17.84;77.50;100337.31;5097228;27;46110;-58
2022/10/20 08:08:59;;;;;;;;;8.00;8.00;;;;;17.88;77.43;100330.81;5097535;27;45467;-59
2022/10/20 08:11:25;;;;;;;;;7.00;7.00;;;;;17.87;77.39;100332.63;5097604;27;45467;-57
2022/10/20 08:13:51;;;;;;;;;9.67;9.67;;;;;17.93;77.00;100328.66;5097660;27;45571;-57
2022/10/20 08:16:17;;;;;;;;;5.33;5.33;;;;;17.96;77.29;100324.94;5097268;27;45903;-58
2022/10/20 08:18:43;;;;;;;;;6.25;6.25;;;;;18.00;76.86;100323.75;5097576;27;45527;-62
2022/10/20 08:21:13;;;;;;;;;4.50;4.50;;;;;17.98;76.79;100317.72;5097159;27;45338;-58
2022/10/20 08:23:41;;;;;;;;;7.50;6.75;;;;;17.96;76.53;100323.13;5097548;27;45434;-58
2022/10/20 08:26:06;;;;;;;;;7.00;6.25;;;;;18.02;76.42;100332.47;5097253;27;46127;-59
2022/10/20 08:28:32;;;;;;;;;5.00;5.00;;;;;18.04;76.72;100338.56;5097301;27;45386;-58
2022/10/20 08:31:00;;;;;;;;;4.67;4.67;;;;;18.08;76.27;100342.69;5097574;27;45382;-57
2022/10/20 08:33:25;;;;;;;;;5.67;5.33;;;;;18.06;76.08;100353.47;5097265;27;45469;-59
2022/10/20 08:35:51;;;;;;;;;5.33;5.00;;;;;18.09;76.12;100347.91;5097320;27;46626;-61
2022/10/20 08:38:16;;;;;;;;;6.00;6.00;;;;;18.09;75.86;100342.59;5096973;27;45369;-59
2022/10/20 08:40:42;;;;;;;;;13.67;12.67;;;;;18.12;76.15;100338.00;5097238;27;45517;-61
2022/10/20 08:43:17;;;;;;;;;10.67;10.67;;;;;18.15;75.46;100340.47;5097246;27;45438;-59
2022/10/20 08:45:43;;;;;;;;;11.67;11.67;;;;;18.16;75.85;100351.00;5096571;27;46152;-59
2022/10/20 08:48:17;;;;;;;;;10.33;9.33;;;;;18.19;76.08;100353.44;5096936;27;45496;-57
2022/10/20 08:50:44;;;;;;;;;5.75;5.75;;;;;18.20;75.57;100351.63;5097179;27;45471;-60
2022/10/20 08:53:11;;;;;;;;;10.67;8.33;;;;;18.19;75.47;100353.44;5088139;27;45439;-60
2022/10/20 08:55:37;;;;;;;;;6.25;6.25;;;;;18.16;75.79;100353.66;5091377;27;45989;-57
2022/10/20 08:58:12;;;;;;;;;4.25;4.25;;;;;18.19;75.22;100345.47;5096864;27;45346;-58
2022/10/20 09:00:38;;;;;;;;;11.00;9.67;;;;;18.21;75.30;100342.66;5096911;27;46216;-61
2022/10/20 09:03:20;;;;;;;;;7.25;6.75;;;;;18.20;75.74;100348.97;5096965;27;45437;-59
2022/10/20 09:05:52;;;;;;;;;7.25;7.25;;;;;18.22;75.39;100355.88;5096426;27;46329;-60
2022/10/20 09:08:20;;;;;;;;;5.25;4.00;;;;;18.26;75.31;100361.84;5096694;27;45485;-59
2022/10/20 09:10:52;;;;;;;;;4.00;4.00;;;;;18.28;75.60;100362.59;5096840;27;45502;-60
2022/10/20 09:13:22;;;;;;;;;5.50;5.50;;;;;18.25;75.94;100358.31;5096959;27;45323;-61
2022/10/20 09:15:51;;;;;;;;;3.00;3.00;;;;;18.27;75.91;100359.06;5096727;27;46196;-61
2022/10/20 09:18:19;;;;;;;;;3.75;3.50;;;;;18.28;75.86;100355.44;5096350;27;45361;-61
2022/10/20 09:20:57;;;;;;;;;3.00;3.00;;;;;18.34;75.88;100351.47;5097227;27;45415;-62
2022/10/20 09:23:40;;;;;;;;;5.00;3.75;;;;;18.38;75.78;100352.13;5096380;27;45643;-59
2022/10/20 09:26:26;;;;;;;;;4.00;4.00;;;;;18.39;75.37;100343.19;5096323;27;45545;-58
2022/10/20 09:29:13;;;;;;;;;4.00;4.00;;;;;18.48;74.83;100342.50;5096701;27;45519;-58
2022/10/20 09:31:39;;;;;;;;;3.75;3.75;;;;;18.51;74.73;100344.94;5096421;27;45473;-60
2022/10/20 09:34:26;;;;;;;;;4.50;4.50;;;;;18.56;74.24;100345.44;5096214;27;45464;-59
2022/10/20 09:37:23;;;;;;;;;2.25;2.25;;;;;18.61;73.77;100337.97;5096157;27;46043;-60
2022/10/20 09:39:53;;;;;;;;;3.00;3.00;;;;;18.65;74.05;100344.81;5072407;27;45452;-59
2022/10/20 09:42:29;;;;;;;;;14.67;14.67;;;;;18.69;73.79;100338.25;5096455;27;45393;-62
2022/10/20 09:45:05;;;;;;;;;6.00;5.00;;;;;18.73;73.65;100328.25;5096150;27;45346;-59
2022/10/20 09:47:33;;;;;;;;;3.25;3.25;;;;;18.82;72.79;100342.75;5096035;27;45467;-62
2022/10/20 09:50:05;;;;;;;;;4.50;4.50;;;;;18.86;73.11;100338.88;5095609;27;45438;-61
2022/10/20 09:52:43;;;;;;;;;3.50;3.50;;;;;18.91;73.01;100345.59;5092848;27;45444;-59
2022/10/20 09:55:28;;;;;;;;;2.25;2.25;;;;;18.96;72.00;100337.22;5085533;27;45440;-60
2022/10/20 09:57:56;;;;;;;;;2.25;2.25;;;;;19.01;72.46;100332.41;5095816;27;45525;-59
2022/10/20 10:00:38;;;;;;;;;3.00;3.00;;;;;19.06;71.25;100334.72;5091862;27;45457;-59
2022/10/20 10:03:08;;;;;;;;;3.50;3.50;;;;;19.12;70.76;100328.94;5074858;27;45500;-60
2022/10/20 10:05:34;;;;;;;;;3.75;3.75;;;;;19.19;71.23;100324.84;5088778;27;45344;-59
2022/10/20 10:08:00;;;;;;;;;5.50;4.75;;;;;19.23;70.35;100325.44;5095514;27;46090;-62
2022/10/20 10:10:28;;;;;;;;;4.50;4.50;;;;;19.26;70.63;100315.41;5095701;27;45442;-59
2022/10/20 10:12:59;;;;;;;;;4.25;4.25;;;;;19.30;70.53;100327.53;5095738;27;45394;-61
2022/10/20 10:15:29;;;;;;;;;4.00;4.00;;;;;19.33;69.82;100323.78;5095492;27;45535;-59
2022/10/20 10:17:55;;;;;;;;;3.75;3.75;;;;;19.33;69.37;100329.97;5095226;27;45466;-62
2022/10/20 10:20:20;;;;;;;;;3.00;3.00;;;;;19.32;69.49;100330.94;5095664;27;45419;-60
2022/10/20 10:22:46;;;;;;;;;3.75;3.75;;;;;19.32;69.71;100324.78;5094731;27;45374;-60
2022/10/20 10:25:22;;;;;;;;;2.25;2.25;;;;;19.36;69.06;100318.22;5095487;27;45366;-58
2022/10/20 10:28:05;;;;;;;;;8.25;3.75;;;;;19.41;69.39;100308.91;5095792;27;45500;-60
2022/10/20 10:30:36;;;;;;;;;4.00;2.75;;;;;19.46;68.31;100302.38;5095639;27;45406;-58
2022/10/20 10:33:23;;;;;;;;;8.00;6.75;;;;;19.49;68.30;100308.31;5095559;27;45483;-60
2022/10/20 10:35:48;;;;;;;;;1.50;1.50;;;;;19.55;67.35;100307.81;5095299;27;45398;-62
2022/10/20 10:38:18;;;;;;;;;3.25;3.25;;;;;19.56;67.93;100303.38;5094974;27;45373;-59
2022/10/20 10:40:58;;;;;;;;;2.50;2.50;;;;;19.57;66.54;100305.06;5095244;27;45438;-59
2022/10/20 10:43:50;;;;;;;;;3.00;3.00;;;;;19.58;67.04;100302.25;5095424;27;45546;-62
2022/10/20 10:46:19;;;;;;;;;3.00;3.00;;;;;19.61;67.54;100296.69;5098449;27;45474;-59
2022/10/20 10:49:22;;;;;;;;;3.25;3.25;;;;;19.65;66.54;100298.13;5098531;27;45411;-59
2022/10/20 10:51:57;;;;;;;;;3.25;3.25;;;;;19.74;67.13;100285.94;5097533;27;45456;-64
2022/10/20 10:54:42;;;;;;;;;3.50;3.00;;;;;19.83;65.46;100284.38;5083058;27;45413;-58
2022/10/20 10:57:22;;;;;;;;;4.50;4.00;;;;;19.90;65.94;100279.38;5092338;27;45581;-63
2022/10/20 10:59:51;;;;;;;;;3.00;3.00;;;;;19.94;65.61;100281.69;5086005;27;45437;-61
2022/10/20 11:02:23;;;;;;;;;2.75;2.75;;;;;20.02;64.72;100283.75;5081681;27;45389;-61
2022/10/20 11:05:22;;;;;;;;;2.00;2.00;;;;;20.01;63.87;100282.03;5084751;27;45451;-62
2022/10/20 11:08:06;;;;;;;;;1.00;1.00;;;;;20.02;63.63;100291.75;5093394;27;45498;-60
2022/10/20 11:10:51;;;;;;;;;1.75;1.75;;;;;20.03;64.16;100269.44;5098306;27;46198;-60
2022/10/20 11:13:34;;;;;;;;;1.75;1.75;;;;;20.06;64.37;100266.50;5098296;27;45375;-60
2022/10/20 11:16:33;;;;;;;;;1.00;1.00;;;;;20.02;63.67;100265.06;5085177;27;45488;-60
2022/10/20 11:19:40;;;;;;;;;2.00;2.00;;;;;20.02;63.95;100257.91;5103419;27;45373;-60
2022/10/20 11:22:14;;;;;;;;;5.75;5.50;;;;;20.04;64.16;100255.09;5068755;27;46150;-60
2022/10/20 11:24:42;;;;;;;;;1.25;1.25;;;;;20.02;63.03;100252.56;5102407;27;45531;-61
2022/10/20 11:27:29;;;;;;;;;2.00;2.00;;;;;20.00;63.95;100243.81;5096862;27;45621;-61
2022/10/20 11:30:14;;;;;;;;;4.50;3.50;;;;;20.02;64.09;100247.22;5098274;27;45460;-60